createdAt,value
2023-01-27T00:01:18.274Z,-1.10
2023-01-27T00:03:46.529Z,-1.10
2023-01-27T00:06:15.981Z,-1.20
2023-01-27T00:08:44.051Z,-1.10
2023-01-27T00:11:29.735Z,-1.10
2023-01-27T00:13:57.791Z,-1.00
2023-01-27T00:16:25.823Z,-1.10
2023-01-27T00:18:53.925Z,-1.10
2023-01-27T00:21:41.027Z,-1.10
2023-01-27T00:24:30.968Z,-1.10
2023-01-27T00:26:59.055Z,-1.00
2023-01-27T00:29:27.101Z,-1.00
2023-01-27T00:32:13.353Z,-1.00
2023-01-27T00:34:41.885Z,-1.00
2023-01-27T00:37:11.392Z,-1.00
2023-01-27T00:39:40.178Z,-1.00
2023-01-27T00:42:08.245Z,-1.00
2023-01-27T00:44:36.470Z,-1.00
2023-01-27T00:47:04.531Z,-1.00
2023-01-27T00:49:32.604Z,-1.00
2023-01-27T00:52:00.586Z,-1.00
2023-01-27T00:54:29.993Z,-1.00
2023-01-27T00:56:58.212Z,-1.00
2023-01-27T00:59:26.282Z,-1.00
2023-01-27T01:01:56.345Z,-1.10
2023-01-27T01:04:24.469Z,-1.10
2023-01-27T01:06:52.557Z,-1.10
2023-01-27T01:09:20.961Z,-1.20
2023-01-27T01:11:50.446Z,-1.20
2023-01-27T01:14:18.503Z,-1.20
2023-01-27T01:16:49.439Z,-1.20
2023-01-27T01:19:17.442Z,-1.20
2023-01-27T01:21:45.796Z,-1.10
2023-01-27T01:24:14.054Z,-1.20
2023-01-27T01:26:44.912Z,-1.20
2023-01-27T01:29:14.420Z,-1.20
2023-01-27T01:31:42.696Z,-1.30
2023-01-27T01:34:13.053Z,-1.20
2023-01-27T01:36:41.031Z,-1.30
2023-01-27T01:39:09.029Z,-1.20
2023-01-27T01:41:36.999Z,-1.20
2023-01-27T01:44:22.394Z,-1.30
2023-01-27T01:46:50.515Z,-1.20
2023-01-27T01:49:20.908Z,-1.30
2023-01-27T01:51:53.144Z,-1.30
2023-01-27T01:54:24.790Z,-1.30
2023-01-27T01:56:56.923Z,-1.30
2023-01-27T01:59:29.716Z,-1.30
2023-01-27T02:02:01.109Z,-1.40
2023-01-27T02:04:34.988Z,-1.40
2023-01-27T02:07:08.790Z,-1.40
2023-01-27T02:09:38.032Z,-1.40
2023-01-27T02:12:06.985Z,-1.40
2023-01-27T02:14:36.613Z,-1.40
2023-01-27T02:17:06.818Z,-1.40
2023-01-27T02:19:54.828Z,-1.50
2023-01-27T02:22:28.538Z,-1.40
2023-01-27T02:25:02.258Z,-1.40
2023-01-27T02:27:31.793Z,-1.40
2023-01-27T02:29:59.833Z,-1.40
2023-01-27T02:32:28.461Z,-1.40
2023-01-27T02:34:57.726Z,-1.40
2023-01-27T02:37:26.561Z,-1.40
2023-01-27T02:39:56.678Z,-1.40
2023-01-27T02:42:24.853Z,-1.40
2023-01-27T02:44:54.253Z,-1.50
2023-01-27T02:47:22.265Z,-1.40
2023-01-27T02:49:50.644Z,-1.40
2023-01-27T02:52:18.747Z,-1.40
2023-01-27T02:54:46.818Z,-1.40
2023-01-27T02:57:14.979Z,-1.50
2023-01-27T02:59:43.052Z,-1.50
2023-01-27T03:02:15.178Z,-1.50
2023-01-27T03:04:43.156Z,-1.50
2023-01-27T03:07:11.118Z,-1.60
2023-01-27T03:09:39.160Z,-1.50
2023-01-27T03:12:23.656Z,-1.50
2023-01-27T03:15:10.331Z,-1.50
2023-01-27T03:17:57.668Z,-1.50
2023-01-27T03:20:25.850Z,-1.50
2023-01-27T03:22:54.178Z,-1.60
2023-01-27T03:25:22.186Z,-1.60
2023-01-27T03:27:50.204Z,-1.60
2023-01-27T03:30:18.400Z,-1.60
2023-01-27T03:32:47.862Z,-1.60
2023-01-27T03:35:16.744Z,-1.60
2023-01-27T03:38:02.909Z,-1.50
2023-01-27T03:40:49.187Z,-1.50
2023-01-27T03:43:37.231Z,-1.60
2023-01-27T03:46:23.315Z,-1.60
2023-01-27T03:48:54.325Z,-1.50
2023-01-27T03:51:24.297Z,-1.50
2023-01-27T03:53:52.960Z,-1.50
2023-01-27T03:56:22.983Z,-1.50
2023-01-27T03:58:51.936Z,-1.50
2023-01-27T04:01:22.044Z,-1.50
2023-01-27T04:04:09.961Z,-1.50
2023-01-27T04:06:58.712Z,-1.50
2023-01-27T04:09:29.086Z,-1.50
2023-01-27T04:11:58.962Z,-1.50
2023-01-27T04:14:29.551Z,-1.50
2023-01-27T04:17:00.249Z,-1.50
2023-01-27T04:19:29.813Z,-1.50
2023-01-27T04:21:58.955Z,-1.60
2023-01-27T04:24:27.107Z,-1.60
2023-01-27T04:26:57.207Z,-1.60
2023-01-27T04:29:29.414Z,-1.60
2023-01-27T04:31:59.047Z,-1.60
2023-01-27T04:34:30.024Z,-1.50
2023-01-27T04:36:58.570Z,-1.50
2023-01-27T04:39:27.080Z,-1.60
2023-01-27T04:41:55.224Z,-1.60
2023-01-27T04:44:23.553Z,-1.50
2023-01-27T04:46:52.888Z,-1.50
2023-01-27T04:49:21.133Z,-1.50
2023-01-27T04:51:51.020Z,-1.50
2023-01-27T04:54:19.518Z,-1.50
2023-01-27T04:56:58.092Z,-1.40
2023-01-27T04:59:26.509Z,-1.50
2023-01-27T05:01:54.744Z,-1.40
2023-01-27T05:04:23.254Z,-1.50
2023-01-27T05:06:52.666Z,-1.50
2023-01-27T05:09:20.753Z,-1.50
2023-01-27T05:11:48.770Z,-1.50
2023-01-27T05:14:19.564Z,-1.50
2023-01-27T05:16:48.339Z,-1.50
2023-01-27T05:19:16.391Z,-1.50
2023-01-27T05:21:44.426Z,-1.50
2023-01-27T05:24:13.978Z,-1.50
2023-01-27T05:26:42.029Z,-1.40
2023-01-27T05:29:11.566Z,-1.40
2023-01-27T05:31:41.733Z,-1.40
2023-01-27T05:34:10.791Z,-1.40
2023-01-27T05:36:39.585Z,-1.40
2023-01-27T05:39:08.968Z,-1.40
2023-01-27T05:41:39.477Z,-1.30
2023-01-27T05:44:07.859Z,-1.40
2023-01-27T05:46:39.755Z,-1.40
2023-01-27T05:49:07.836Z,-1.30
2023-01-27T05:51:37.697Z,-1.30
2023-01-27T05:54:07.084Z,-1.40
2023-01-27T05:56:35.779Z,-1.40
2023-01-27T05:59:05.220Z,-1.30
2023-01-27T06:01:35.206Z,-1.30
2023-01-27T06:04:03.525Z,-1.30
2023-01-27T06:06:33.811Z,-1.30
2023-01-27T06:09:02.261Z,-1.30
2023-01-27T06:11:30.479Z,-1.30
2023-01-27T06:13:58.559Z,-1.30
2023-01-27T06:16:28.013Z,-1.30
2023-01-27T06:18:56.752Z,-1.30
2023-01-27T06:21:24.775Z,-1.30
2023-01-27T06:23:53.655Z,-1.30
2023-01-27T06:26:22.192Z,-1.30
2023-01-27T06:28:50.470Z,-1.30
2023-01-27T06:31:21.537Z,-1.30
2023-01-27T06:33:51.988Z,-1.30
2023-01-27T06:36:22.275Z,-1.30
2023-01-27T06:38:51.241Z,-1.30
2023-01-27T06:41:19.333Z,-1.30
2023-01-27T06:43:47.896Z,-1.30
2023-01-27T06:46:16.124Z,-1.20
2023-01-27T06:48:44.188Z,-1.20
2023-01-27T06:51:14.192Z,-1.20
2023-01-27T06:53:42.265Z,-1.20
2023-01-27T06:56:10.639Z,-1.20
2023-01-27T06:58:38.642Z,-1.20
2023-01-27T07:01:07.338Z,-1.20
2023-01-27T07:06:02.300Z,-1.20
2023-01-27T07:08:32.095Z,-1.20
2023-01-27T07:11:02.886Z,-1.20
2023-01-27T07:13:31.540Z,-1.10
2023-01-27T07:16:00.377Z,-1.20
2023-01-27T07:18:28.446Z,-1.10
2023-01-27T07:20:56.669Z,-1.10
2023-01-27T07:23:24.860Z,-1.10
2023-01-27T07:25:54.279Z,-1.10
2023-01-27T07:28:22.364Z,-1.20
2023-01-27T07:30:50.631Z,-1.20
2023-01-27T07:33:19.207Z,-1.10
2023-01-27T07:35:50.364Z,-1.10
2023-01-27T07:38:18.712Z,-1.00
2023-01-27T07:40:48.166Z,-1.00
2023-01-27T07:43:20.597Z,-1.00
2023-01-27T07:45:49.801Z,-1.00
2023-01-27T07:48:17.796Z,-1.10
2023-01-27T07:50:45.971Z,-1.10
2023-01-27T07:53:14.076Z,-1.20
2023-01-27T07:55:42.162Z,-1.20
2023-01-27T07:58:11.342Z,-1.10
2023-01-27T08:00:40.780Z,-1.10
2023-01-27T08:03:09.053Z,-1.10
2023-01-27T08:05:38.475Z,-1.00
2023-01-27T08:08:07.037Z,-1.00
2023-01-27T08:10:35.403Z,-1.00
2023-01-27T08:13:03.846Z,-1.10
2023-01-27T08:15:31.929Z,-1.20
2023-01-27T08:18:02.367Z,-1.10
2023-01-27T08:20:32.381Z,-1.10
2023-01-27T08:23:00.855Z,-1.10
2023-01-27T08:25:28.976Z,-1.00
2023-01-27T08:27:57.726Z,-1.00
2023-01-27T08:30:26.719Z,-1.00
2023-01-27T08:32:54.831Z,-1.10
2023-01-27T08:35:24.439Z,-1.20
2023-01-27T08:37:52.563Z,-1.10
2023-01-27T08:40:20.545Z,-1.10
2023-01-27T08:42:51.235Z,-1.00
2023-01-27T08:45:19.369Z,-0.90
2023-01-27T08:47:47.833Z,-0.90
2023-01-27T08:50:16.208Z,-0.80
2023-01-27T08:52:48.827Z,-0.70
2023-01-27T08:55:17.001Z,-0.70
2023-01-27T08:57:45.161Z,-0.70
2023-01-27T09:00:14.768Z,-0.60
2023-01-27T09:02:46.307Z,-0.50
2023-01-27T09:05:15.159Z,-0.50
2023-01-27T09:07:43.277Z,-0.40
2023-01-27T09:10:15.374Z,-0.30
2023-01-27T09:12:44.501Z,-0.40
2023-01-27T09:15:13.441Z,-0.30
2023-01-27T09:17:42.041Z,-0.40
2023-01-27T09:20:12.739Z,-0.40
2023-01-27T09:22:41.912Z,-0.40
2023-01-27T09:25:14.799Z,-0.40
2023-01-27T09:27:43.050Z,-0.50
2023-01-27T09:30:12.981Z,-0.50
2023-01-27T09:32:41.730Z,-0.60
2023-01-27T09:35:11.180Z,-0.50
2023-01-27T09:37:46.058Z,-0.50
2023-01-27T09:40:25.905Z,-0.40
2023-01-27T09:43:19.666Z,-0.40
2023-01-27T09:46:18.091Z,-0.30
2023-01-27T09:49:05.241Z,-0.30
2023-01-27T09:51:45.814Z,-0.20
2023-01-27T09:54:33.501Z,-0.20
2023-01-27T09:57:13.494Z,-0.20
2023-01-27T09:59:57.428Z,-0.20
2023-01-27T10:02:39.496Z,-0.10
2023-01-27T10:05:33.408Z,0.00
2023-01-27T10:08:25.276Z,-0.20
2023-01-27T10:11:13.654Z,-0.10
2023-01-27T10:13:55.328Z,-0.20
2023-01-27T10:16:39.382Z,-0.30
2023-01-27T10:19:18.502Z,-0.30
2023-01-27T10:21:58.088Z,-0.30
2023-01-27T10:24:40.740Z,-0.30
2023-01-27T10:27:17.595Z,-0.20
2023-01-27T10:29:49.645Z,-0.20
2023-01-27T10:32:27.906Z,-0.20
2023-01-27T10:35:08.865Z,-0.40
2023-01-27T10:37:46.541Z,-0.50
2023-01-27T10:40:21.921Z,-0.40
2023-01-27T10:42:56.040Z,-0.50
2023-01-27T10:45:37.671Z,-0.50
2023-01-27T10:48:31.634Z,-0.50
2023-01-27T10:51:04.345Z,-0.50
2023-01-27T10:53:41.249Z,-0.50
2023-01-27T10:56:13.219Z,-0.40
2023-01-27T10:58:52.681Z,-0.40
2023-01-27T11:01:30.533Z,-0.50
2023-01-27T11:04:05.326Z,-0.50
2023-01-27T11:06:37.865Z,-0.50
2023-01-27T11:09:24.138Z,-0.40
2023-01-27T11:11:53.568Z,-0.20
2023-01-27T11:14:28.196Z,-0.10
2023-01-27T11:17:02.728Z,-0.10
2023-01-27T11:19:37.360Z,-0.10
2023-01-27T11:22:14.804Z,0.20
2023-01-27T11:24:47.166Z,0.20
2023-01-27T11:27:24.275Z,0.40
2023-01-27T11:29:58.477Z,0.40
2023-01-27T11:32:39.944Z,0.40
2023-01-27T11:35:11.540Z,0.00
2023-01-27T11:37:41.246Z,0.20
2023-01-27T11:40:20.666Z,0.20
2023-01-27T11:42:51.905Z,0.10
2023-01-27T11:45:22.119Z,0.10
2023-01-27T11:47:55.837Z,0.10
2023-01-27T11:50:25.141Z,0.20
2023-01-27T11:53:01.496Z,0.10
2023-01-27T11:55:37.612Z,0.00
2023-01-27T11:58:14.836Z,0.00
2023-01-27T12:00:47.579Z,-0.10
2023-01-27T12:03:21.838Z,0.10
2023-01-27T12:05:55.343Z,0.00
2023-01-27T12:08:41.747Z,0.00
2023-01-27T12:11:22.376Z,0.20
2023-01-27T12:13:53.082Z,0.30
2023-01-27T12:16:21.994Z,0.20
2023-01-27T12:18:56.403Z,0.20
2023-01-27T12:21:38.394Z,0.20
2023-01-27T12:24:14.267Z,0.30
2023-01-27T12:26:46.278Z,0.10
2023-01-27T12:29:23.069Z,0.10
2023-01-27T12:31:55.251Z,0.10
2023-01-27T12:34:36.906Z,0.10
2023-01-27T12:37:08.755Z,-0.10
2023-01-27T12:39:46.993Z,0.00
2023-01-27T12:42:48.588Z,0.20
2023-01-27T12:45:27.777Z,0.20
2023-01-27T12:48:02.613Z,0.10
2023-01-27T12:50:33.891Z,0.00
2023-01-27T12:53:06.942Z,0.10
2023-01-27T12:55:37.052Z,0.20
2023-01-27T12:58:05.709Z,0.20
2023-01-27T13:00:35.166Z,0.20
2023-01-27T13:03:07.530Z,0.40
2023-01-27T13:05:43.781Z,0.30
2023-01-27T13:08:19.618Z,0.40
2023-01-27T13:10:53.996Z,0.30
2023-01-27T13:13:25.931Z,0.30
2023-01-27T13:15:56.947Z,0.20
2023-01-27T13:18:25.875Z,0.10
2023-01-27T13:21:11.407Z,0.30
2023-01-27T13:23:41.557Z,0.40
2023-01-27T13:26:19.056Z,0.50
2023-01-27T13:28:53.902Z,0.50
2023-01-27T13:31:33.787Z,0.50
2023-01-27T13:34:07.332Z,0.60
2023-01-27T13:36:41.926Z,0.70
2023-01-27T13:39:21.124Z,0.60
2023-01-27T13:41:54.263Z,0.40
2023-01-27T13:44:30.946Z,0.50
2023-01-27T13:47:05.491Z,0.60
2023-01-27T13:49:38.787Z,0.50
2023-01-27T13:52:08.670Z,0.60
2023-01-27T13:54:36.856Z,0.50
2023-01-27T13:57:34.012Z,0.50
2023-01-27T14:00:12.818Z,0.40
2023-01-27T14:03:06.034Z,0.30
2023-01-27T14:05:45.069Z,0.40
2023-01-27T14:08:35.253Z,0.40
2023-01-27T14:11:15.060Z,0.20
2023-01-27T14:14:13.741Z,0.30
2023-01-27T14:16:55.256Z,0.30
2023-01-27T14:19:33.049Z,0.30
2023-01-27T14:22:08.910Z,0.20
2023-01-27T14:24:45.402Z,0.20
2023-01-27T14:27:19.096Z,0.40
2023-01-27T14:29:51.972Z,0.40
2023-01-27T14:32:31.785Z,0.20
2023-01-27T14:35:19.134Z,0.30
2023-01-27T14:37:57.117Z,0.30
2023-01-27T14:40:31.666Z,0.30
2023-01-27T14:43:14.673Z,0.20
2023-01-27T14:45:50.206Z,0.20
2023-01-27T14:48:36.399Z,0.20
2023-01-27T14:51:17.576Z,0.20
2023-01-27T14:54:01.758Z,0.10
2023-01-27T14:56:41.922Z,0.10
2023-01-27T14:59:23.666Z,0.20
2023-01-27T15:01:57.658Z,0.10
2023-01-27T15:04:38.555Z,0.10
2023-01-27T15:07:16.240Z,0.10
2023-01-27T15:10:10.146Z,0.00
2023-01-27T15:13:12.561Z,0.00
2023-01-27T15:16:04.641Z,0.00
2023-01-27T15:18:50.022Z,0.00
2023-01-27T15:21:50.375Z,0.00
2023-01-27T15:24:46.456Z,0.00
2023-01-27T15:27:14.775Z,0.10
2023-01-27T15:29:45.760Z,0.00
2023-01-27T15:32:28.319Z,0.10
2023-01-27T15:35:33.504Z,0.10
2023-01-27T15:38:16.739Z,0.00
2023-01-27T15:41:08.632Z,-0.10
2023-01-27T15:43:43.875Z,-0.10
2023-01-27T15:46:31.861Z,-0.10
2023-01-27T15:49:02.042Z,-0.10
2023-01-27T15:51:32.713Z,-0.10
2023-01-27T15:54:02.680Z,-0.10
2023-01-27T15:56:46.664Z,-0.20
2023-01-27T15:59:26.661Z,-0.20
2023-01-27T16:02:11.339Z,-0.20
2023-01-27T16:04:39.767Z,-0.20
2023-01-27T16:07:21.883Z,-0.10
2023-01-27T16:09:51.762Z,-0.10
2023-01-27T16:12:42.417Z,-0.10
2023-01-27T16:15:35.158Z,-0.20
2023-01-27T16:18:26.438Z,-0.20
2023-01-27T16:21:02.801Z,-0.20
2023-01-27T16:23:52.273Z,-0.30
2023-01-27T16:26:33.864Z,-0.30
2023-01-27T16:29:19.626Z,-0.40
2023-01-27T16:31:52.779Z,-0.40
2023-01-27T16:34:27.971Z,-0.40
2023-01-27T16:37:04.487Z,-0.40
2023-01-27T16:39:39.528Z,-0.50
2023-01-27T16:42:14.663Z,-0.50
2023-01-27T16:44:44.943Z,-0.40
2023-01-27T16:47:22.463Z,-0.40
2023-01-27T16:49:53.813Z,-0.40
2023-01-27T16:52:40.774Z,-0.50
2023-01-27T16:55:21.091Z,-0.50
2023-01-27T16:57:50.549Z,-0.50
2023-01-27T17:00:22.883Z,-0.50
2023-01-27T17:02:52.222Z,-0.50
2023-01-27T17:05:22.219Z,-0.50
2023-01-27T17:08:04.677Z,-0.50
2023-01-27T17:10:35.106Z,-0.50
2023-01-27T17:13:04.064Z,-0.40
2023-01-27T17:15:37.498Z,-0.50
2023-01-27T17:18:10.402Z,-0.50
2023-01-27T17:20:43.889Z,-0.50
2023-01-27T17:23:23.537Z,-0.50
2023-01-27T17:25:52.118Z,-0.60
2023-01-27T17:28:26.525Z,-0.50
2023-01-27T17:31:07.156Z,-0.50
2023-01-27T17:33:37.965Z,-0.50
2023-01-27T17:36:11.854Z,-0.40
2023-01-27T17:38:47.002Z,-0.40
2023-01-27T17:41:33.602Z,-0.50
2023-01-27T17:44:03.129Z,-0.60
2023-01-27T17:46:33.896Z,-0.70
2023-01-27T17:49:05.267Z,-0.70
2023-01-27T17:51:41.275Z,-0.70
2023-01-27T17:54:21.972Z,-0.70
2023-01-27T17:56:53.125Z,-0.60
2023-01-27T17:59:23.218Z,-0.60
2023-01-27T18:01:55.175Z,-0.70
2023-01-27T18:04:25.258Z,-0.60
2023-01-27T18:06:55.154Z,-0.60
2023-01-27T18:09:27.197Z,-0.70
2023-01-27T18:11:58.621Z,-0.50
2023-01-27T18:14:30.504Z,-0.60
2023-01-27T18:17:03.462Z,-0.50
2023-01-27T18:19:31.716Z,-0.60
2023-01-27T18:22:12.379Z,-0.60
2023-01-27T18:24:45.102Z,-0.60
2023-01-27T18:27:29.081Z,-0.70
2023-01-27T18:30:02.141Z,-0.60
2023-01-27T18:32:40.276Z,-0.60
2023-01-27T18:35:25.901Z,-0.60
2023-01-27T18:37:58.460Z,-0.60
2023-01-27T18:40:29.962Z,-0.70
2023-01-27T18:42:58.748Z,-0.60
2023-01-27T18:45:27.906Z,-0.70
2023-01-27T18:47:56.443Z,-0.80
2023-01-27T18:50:26.082Z,-0.80
2023-01-27T18:52:56.013Z,-0.80
2023-01-27T18:55:25.615Z,-0.70
2023-01-27T18:57:56.061Z,-0.70
2023-01-27T19:00:26.007Z,-0.70
2023-01-27T19:02:59.015Z,-0.70
2023-01-27T19:05:29.202Z,-0.70
2023-01-27T19:08:02.251Z,-0.70
2023-01-27T19:10:32.567Z,-0.70
2023-01-27T19:13:02.673Z,-0.60
2023-01-27T19:15:33.762Z,-0.60
2023-01-27T19:18:07.048Z,-0.70
2023-01-27T19:20:35.507Z,-0.70
2023-01-27T19:23:05.017Z,-0.70
2023-01-27T19:25:33.134Z,-0.70
2023-01-27T19:28:05.608Z,-0.70
2023-01-27T19:30:37.508Z,-0.70
2023-01-27T19:33:12.768Z,-0.70
2023-01-27T19:35:43.075Z,-0.80
2023-01-27T19:38:14.100Z,-0.70
2023-01-27T19:40:42.936Z,-0.70
2023-01-27T19:43:14.479Z,-0.70
2023-01-27T19:45:43.919Z,-0.70
2023-01-27T19:48:15.859Z,-0.70
2023-01-27T19:50:44.178Z,-0.80
2023-01-27T19:53:14.736Z,-0.70
2023-01-27T19:55:43.256Z,-0.80
2023-01-27T19:58:22.354Z,-0.70
2023-01-27T20:00:51.011Z,-0.70
2023-01-27T20:03:21.268Z,-0.80
2023-01-27T20:05:49.503Z,-0.80
2023-01-27T20:08:20.850Z,-0.90
2023-01-27T20:10:48.885Z,-0.90
2023-01-27T20:13:20.338Z,-0.80
2023-01-27T20:15:48.701Z,-0.90
2023-01-27T20:18:18.681Z,-0.80
2023-01-27T20:20:47.240Z,-0.80
2023-01-27T20:23:15.655Z,-0.80
2023-01-27T20:25:45.760Z,-0.90
2023-01-27T20:28:13.837Z,-0.80
2023-01-27T20:30:42.884Z,-0.80
2023-01-27T20:33:11.748Z,-0.80
2023-01-27T20:35:40.529Z,-0.80
2023-01-27T20:38:10.332Z,-0.90
2023-01-27T20:40:38.314Z,-0.90
2023-01-27T20:43:07.729Z,-0.90
2023-01-27T20:45:37.398Z,-0.90
2023-01-27T20:48:06.587Z,-0.90
2023-01-27T20:50:35.190Z,-0.90
2023-01-27T20:53:04.596Z,-0.90
2023-01-27T20:55:32.691Z,-0.90
2023-01-27T20:58:02.117Z,-1.00
2023-01-27T21:00:31.594Z,-1.00
2023-01-27T21:03:05.529Z,-1.00
2023-01-27T21:05:34.390Z,-1.00
2023-01-27T21:08:02.419Z,-0.90
2023-01-27T21:10:30.562Z,-0.90
2023-01-27T21:12:58.648Z,-1.00
2023-01-27T21:15:26.910Z,-1.00
2023-01-27T21:17:56.496Z,-0.90
2023-01-27T21:20:24.702Z,-0.90
2023-01-27T21:22:52.809Z,-1.00
2023-01-27T21:25:21.238Z,-1.00
2023-01-27T21:27:49.674Z,-1.00
2023-01-27T21:30:18.292Z,-1.00
2023-01-27T21:32:46.315Z,-1.00
2023-01-27T21:35:16.432Z,-1.00
2023-01-27T21:37:44.829Z,-1.00
2023-01-27T21:40:14.692Z,-1.00
2023-01-27T21:42:59.945Z,-1.00
2023-01-27T21:45:28.717Z,-1.00
2023-01-27T21:47:56.857Z,-1.10
2023-01-27T21:50:26.515Z,-1.10
2023-01-27T21:52:54.676Z,-1.10
2023-01-27T21:55:24.723Z,-1.00
2023-01-27T21:57:55.008Z,-1.10
2023-01-27T22:00:25.947Z,-1.10
2023-01-27T22:02:55.520Z,-1.20
2023-01-27T22:05:25.790Z,-1.10
2023-01-27T22:07:54.665Z,-1.20
2023-01-27T22:10:24.943Z,-1.20
2023-01-27T22:12:57.995Z,-1.20
2023-01-27T22:15:28.742Z,-1.10
2023-01-27T22:17:56.916Z,-1.20
2023-01-27T22:20:26.979Z,-1.20
2023-01-27T22:22:55.280Z,-1.20
2023-01-27T22:25:23.799Z,-1.10
2023-01-27T22:27:55.295Z,-1.20
2023-01-27T22:30:23.600Z,-1.10
2023-01-27T22:32:51.807Z,-1.10
2023-01-27T22:35:20.160Z,-1.10
2023-01-27T22:37:50.135Z,-1.10
2023-01-27T22:40:18.476Z,-1.10
2023-01-27T22:42:46.504Z,-1.10
2023-01-27T22:45:14.773Z,-1.20
2023-01-27T22:47:43.035Z,-1.20
2023-01-27T22:50:13.635Z,-1.20
2023-01-27T22:52:41.758Z,-1.20
2023-01-27T22:55:13.357Z,-1.20
2023-01-27T22:57:41.572Z,-1.20
2023-01-27T23:00:10.895Z,-1.20
2023-01-27T23:02:39.704Z,-1.20
2023-01-27T23:05:08.530Z,-1.10
2023-01-27T23:07:36.645Z,-1.10
2023-01-27T23:10:05.383Z,-1.20
2023-01-27T23:12:34.750Z,-1.20
2023-01-27T23:15:04.058Z,-1.20
2023-01-27T23:17:32.105Z,-1.20
2023-01-27T23:20:00.127Z,-1.20
2023-01-27T23:22:28.192Z,-1.20
2023-01-27T23:24:56.352Z,-1.20
2023-01-27T23:27:25.210Z,-1.20
2023-01-27T23:29:55.329Z,-1.20
2023-01-27T23:32:23.513Z,-1.30
2023-01-27T23:34:51.964Z,-1.20
2023-01-27T23:37:20.189Z,-1.20
2023-01-27T23:39:50.527Z,-1.20
2023-01-27T23:42:18.972Z,-1.20
2023-01-27T23:44:47.861Z,-1.30
2023-01-27T23:47:17.759Z,-1.20
2023-01-27T23:49:45.865Z,-1.30
2023-01-27T23:52:14.525Z,-1.30
2023-01-27T23:54:42.568Z,-1.30
2023-01-27T23:57:10.749Z,-1.30
2023-01-27T23:59:38.733Z,-1.40
